Time;durP1;ratioP1;P1;durP2;ratioP2;P2;SDS_P1;SDS_P2;PMS_P1;PMS_P2;Temp;Humidity;BMP_temperature;BMP_pressure;BME280_temperature;BME280_humidity;BME280_pressure;Samples;Min_cycle;Max_cycle;Signal;HPM_P1;HPM_P2
2021/06/19 00:04:30;;;;;;;0.70;0.70;;;;;;;14.20;100.00;101515.97;1945389;73;39616;-72
2021/06/19 00:09:53;;;;;;;1.03;1.00;;;;;;;14.17;100.00;101517.09;1832111;77;86614;-72
2021/06/19 00:15:21;;;;;;;1.97;0.70;;;;;;;14.25;100.00;101521.48;1947045;73;39612;-73
2021/06/19 00:20:45;;;;;;;1.03;0.90;;;;;;;14.20;100.00;101515.13;1876706;75;85291;-74
2021/06/19 00:26:10;;;;;;;1.17;0.90;;;;;;;13.95;100.00;101514.76;1949298;73;39468;-75
2021/06/19 00:31:35;;;;;;;1.77;1.27;;;;;;;14.06;100.00;101509.38;1913490;73;39605;-72
2021/06/19 00:37:05;;;;;;;1.00;0.90;;;;;;;14.05;100.00;101500.72;1784809;79;86285;-73
2021/06/19 00:42:30;;;;;;;1.30;1.20;;;;;;;13.96;100.00;101503.30;1930346;72;39534;-72
2021/06/19 00:47:53;;;;;;;2.57;1.03;;;;;;;14.14;100.00;101505.95;1837008;77;86392;-72
2021/06/19 00:53:18;;;;;;;1.33;0.93;;;;;;;13.89;100.00;101500.58;1946877;73;39512;-72
2021/06/19 00:58:42;;;;;;;1.93;1.30;;;;;;;14.02;100.00;101497.13;1904312;75;86927;-71
2021/06/19 01:04:08;;;;;;;3.57;1.20;;;;;;;14.04;100.00;101490.66;1759897;80;85885;-72
2021/06/19 01:09:32;;;;;;;2.17;1.10;;;;;;;13.98;100.00;101481.52;1893892;72;39795;-72
2021/06/19 01:14:57;;;;;;;1.73;1.37;;;;;;;14.01;100.00;101479.52;1837175;77;86271;-72
2021/06/19 01:20:22;;;;;;;1.47;1.20;;;;;;;13.91;100.00;101467.59;1934475;72;39716;-72
2021/06/19 01:26:07;;;;;;;1.20;1.07;;;;;;;13.85;100.00;101467.38;1871418;73;85474;-74
2021/06/19 01:31:33;;;;;;;1.30;1.20;;;;;;;13.71;100.00;101456.60;1944614;73;39622;-72
2021/06/19 01:37:03;;;;;;;2.03;1.40;;;;;;;13.73;100.00;101459.95;1784675;79;86540;-72
2021/06/19 01:42:28;;;;;;;2.43;1.30;;;;;;;13.82;100.00;101472.97;1945262;73;46292;-72
2021/06/19 01:47:51;;;;;;;2.30;1.30;;;;;;;13.68;100.00;101474.78;1836763;77;86954;-72
2021/06/19 01:53:19;;;;;;;1.67;1.10;;;;;;;13.74;100.00;101498.73;1947252;73;39550;-72
2021/06/19 01:58:44;;;;;;;1.60;1.50;;;;;;;13.75;100.00;101508.78;1876738;75;86766;-72
2021/06/19 02:04:09;;;;;;;1.63;1.40;;;;;;;13.94;100.00;101525.13;1833362;78;86361;-72
2021/06/19 02:09:39;;;;;;;1.77;1.13;;;;;;;13.82;100.00;101521.03;1942854;73;39553;-72
2021/06/19 02:15:09;;;;;;;3.03;1.40;;;;;;;13.78;100.00;101532.52;1946177;71;86087;-72
2021/06/19 02:20:34;;;;;;;3.43;1.53;;;;;;;13.76;100.00;101550.94;1943682;73;39579;-72
2021/06/19 02:25:59;;;;;;;2.47;1.30;;;;;;;13.74;100.00;101574.67;1823703;78;86496;-72
2021/06/19 02:31:24;;;;;;;2.00;1.40;;;;;;;13.71;100.00;101561.30;1945836;73;39577;-72
2021/06/19 02:36:50;;;;;;;2.70;1.50;;;;;;;13.83;100.00;101558.98;1876669;75;86332;-72
2021/06/19 02:42:14;;;;;;;2.60;1.57;;;;;;;13.77;100.00;101557.36;1923469;73;39735;-72
2021/06/19 02:47:38;;;;;;;2.30;1.80;;;;;;;13.75;100.00;101545.64;1943196;73;39746;-72
2021/06/19 02:53:03;;;;;;;4.57;2.10;;;;;;;13.74;100.00;101539.77;1851449;75;86598;-72
2021/06/19 02:58:29;;;;;;;2.13;1.60;;;;;;;13.72;100.00;101538.69;1944792;73;39498;-72
2021/06/19 03:03:53;;;;;;;1.93;1.60;;;;;;;13.79;100.00;101550.91;1837173;77;86442;-72
2021/06/19 03:09:19;;;;;;;1.80;1.70;;;;;;;13.65;100.00;101554.34;1919952;73;39510;-72
2021/06/19 03:14:43;;;;;;;4.27;1.70;;;;;;;13.70;100.00;101532.55;1876666;75;86455;-71
2021/06/19 03:20:12;;;;;;;3.60;1.77;;;;;;;13.74;100.00;101531.39;1838154;77;86590;-71
2021/06/19 03:25:44;;;;;;;2.30;1.80;;;;;;;13.80;100.00;101547.00;1876728;75;86059;-72
2021/06/19 03:31:09;;;;;;;2.93;2.10;;;;;;;13.68;100.00;101552.39;1838266;77;86184;-72
2021/06/19 03:36:33;;;;;;;3.20;2.00;;;;;;;13.81;100.00;101566.83;1893395;73;39434;-72
2021/06/19 03:41:58;;;;;;;2.60;1.80;;;;;;;13.73;100.00;101579.45;1832436;78;85506;-72
2021/06/19 03:47:23;;;;;;;2.47;2.00;;;;;;;13.78;100.00;101593.95;1946111;73;39475;-72
2021/06/19 03:52:46;;;;;;;2.67;1.80;;;;;;;13.66;100.00;101591.48;1891623;74;86213;-72
2021/06/19 03:58:11;;;;;;;2.80;1.97;;;;;;;13.69;100.00;101609.88;1948839;73;39401;-72
2021/06/19 04:03:35;;;;;;;2.07;1.87;;;;;;;13.66;100.00;101606.83;1927370;72;39460;-72
2021/06/19 04:09:00;;;;;;;1.70;1.60;;;;;;;13.65;100.00;101606.55;1784789;79;86746;-72
2021/06/19 04:14:24;;;;;;;2.73;1.80;;;;;;;13.70;100.00;101598.16;1933161;72;39416;-72
2021/06/19 04:19:49;;;;;;;3.03;2.00;;;;;;;13.65;100.00;101593.44;1882046;75;86449;-72
2021/06/19 04:25:15;;;;;;;2.20;2.00;;;;;;;13.76;100.00;101600.37;1928951;72;39450;-72
2021/06/19 04:30:41;;;;;;;2.57;2.00;;;;;;;13.79;100.00;101603.41;1942790;73;39539;-72
2021/06/19 04:36:24;;;;;;;2.40;2.20;;;;;;;13.82;100.00;101610.40;1860741;76;86227;-73
2021/06/19 04:41:53;;;;;;;3.93;2.70;;;;;;;13.75;100.00;101607.91;1876715;75;86176;-72
2021/06/19 04:47:17;;;;;;;3.93;2.93;;;;;;;13.81;100.00;101606.77;1885304;73;39389;-72
2021/06/19 04:52:42;;;;;;;3.87;2.90;;;;;;;13.80;100.00;101621.84;1911384;73;39789;-73
2021/06/19 04:58:10;;;;;;;3.07;2.77;;;;;;;13.51;100.00;101586.83;1837571;74;85983;-72
2021/06/19 05:03:35;;;;;;;5.77;3.30;;;;;;;13.79;100.00;101632.73;1913203;73;39574;-72
2021/06/19 05:09:00;;;;;;;4.10;3.70;;;;;;;13.81;100.00;101633.85;1779664;79;86359;-72
2021/06/19 05:14:24;;;;;;;5.60;3.70;;;;;;;13.83;100.00;101655.33;1945969;73;39531;-72
2021/06/19 05:19:48;;;;;;;3.80;3.50;;;;;;;13.98;100.00;101660.84;1882036;75;86181;-72
2021/06/19 05:25:15;;;;;;;3.20;2.90;;;;;;;13.88;100.00;101645.53;1906230;73;39591;-71
2021/06/19 05:30:40;;;;;;;5.17;3.53;;;;;;;13.93;100.00;101638.52;1926860;72;39647;-72
2021/06/19 05:36:05;;;;;;;5.53;3.87;;;;;;;13.91;100.00;101635.17;1837928;77;86286;-72
2021/06/19 05:41:30;;;;;;;5.00;3.30;;;;;;;13.85;100.00;101632.98;1944902;73;39581;-72
2021/06/19 05:46:54;;;;;;;3.73;3.03;;;;;;;13.91;100.00;101619.25;1855828;76;86217;-72
2021/06/19 05:52:21;;;;;;;5.10;3.07;;;;;;;13.98;100.00;101621.18;1947175;72;39637;-73
2021/06/19 05:57:45;;;;;;;4.80;2.93;;;;;;;14.06;100.00;101621.96;1881860;75;86409;-72
2021/06/19 06:03:10;;;;;;;4.83;3.20;;;;;;;14.14;100.00;101624.69;1939242;72;40623;-72
2021/06/19 06:08:35;;;;;;;4.37;3.10;;;;;;;14.11;100.00;101616.34;1932225;72;39512;-72
2021/06/19 06:13:59;;;;;;;5.90;3.37;;;;;;;14.02;100.00;101601.32;1777117;79;86659;-74
2021/06/19 06:19:23;;;;;;;4.63;3.80;;;;;;;14.16;100.00;101610.45;1946116;73;39640;-72
2021/06/19 06:24:48;;;;;;;4.13;2.97;;;;;;;14.15;100.00;101613.80;1876766;75;86385;-72
2021/06/19 06:30:15;;;;;;;3.27;2.93;;;;;;;14.21;100.00;101625.75;1924439;73;39430;-72
2021/06/19 06:35:40;;;;;;;3.40;2.70;;;;;;;14.28;100.00;101625.72;1911332;73;39490;-72
2021/06/19 06:41:04;;;;;;;2.33;2.13;;;;;;;14.16;100.00;101635.03;1838169;77;86293;-72
2021/06/19 06:46:28;;;;;;;3.47;2.80;;;;;;;14.33;100.00;101634.07;1939437;72;40105;-73
2021/06/19 06:51:51;;;;;;;2.57;2.37;;;;;;;14.33;100.00;101628.48;1836941;77;86483;-72
2021/06/19 06:57:16;;;;;;;3.60;2.30;;;;;;;14.45;100.00;101639.31;1904916;73;39439;-72
2021/06/19 07:02:42;;;;;;;2.00;1.90;;;;;;;14.43;100.00;101640.98;1937398;73;39541;-72
2021/06/19 07:08:07;;;;;;;2.20;2.10;;;;;;;14.57;100.00;101639.20;1946187;71;86297;-72
2021/06/19 07:13:32;;;;;;;2.50;2.30;;;;;;;14.58;100.00;101639.48;1944541;73;39674;-72
2021/06/19 07:18:57;;;;;;;2.20;2.10;;;;;;;14.47;100.00;101618.87;1837344;77;86150;-72
2021/06/19 07:24:27;;;;;;;3.47;2.90;;;;;;;14.49;100.00;101619.42;1945439;73;39502;-72
2021/06/19 07:29:51;;;;;;;3.30;3.00;;;;;;;14.54;100.00;101613.23;1832075;77;85646;-71
2021/06/19 07:35:17;;;;;;;4.43;3.50;;;;;;;14.68;100.00;101618.12;1948176;73;39511;-72
2021/06/19 07:40:44;;;;;;;5.53;3.60;;;;;;;14.77;100.00;101625.58;1876970;75;86221;-72
2021/06/19 07:46:09;;;;;;;3.87;3.23;;;;;;;14.79;100.00;101621.94;1884412;75;86615;-71
2021/06/19 07:51:35;;;;;;;3.60;2.07;;;;;;;14.86;100.00;101604.23;1916007;72;39756;-71
2021/06/19 07:57:00;;;;;;;1.60;1.50;;;;;;;14.82;100.00;101575.19;1784846;79;86414;-72
2021/06/19 08:02:25;;;;;;;1.33;1.23;;;;;;;14.90;100.00;101597.48;1945899;73;39757;-72
2021/06/19 08:07:49;;;;;;;0.93;0.90;;;;;;;14.94;100.00;101597.16;1876866;75;85914;-73
2021/06/19 08:13:13;;;;;;;2.13;1.63;;;;;;;14.88;100.00;101600.59;1923903;73;39551;-71
2021/06/19 08:18:38;;;;;;;1.40;1.30;;;;;;;14.85;100.00;101594.17;1943244;73;39466;-72
2021/06/19 08:24:02;;;;;;;1.60;1.50;;;;;;;14.82;100.00;101587.78;1777058;79;86441;-71
2021/06/19 08:29:26;;;;;;;2.07;1.27;;;;;;;14.96;100.00;101593.52;1916394;73;39626;-72
2021/06/19 08:34:51;;;;;;;1.60;1.50;;;;;;;15.02;100.00;101602.10;1836849;77;85846;-71
2021/06/19 08:40:18;;;;;;;1.50;1.40;;;;;;;14.96;100.00;101619.53;1938116;72;39792;-72
2021/06/19 08:45:47;;;;;;;1.70;1.60;;;;;;;15.11;100.00;101612.91;1880117;75;86190;-72
2021/06/19 08:51:11;;;;;;;3.33;1.47;;;;;;;14.98;100.00;101615.02;1948874;73;39433;-72
2021/06/19 08:56:36;;;;;;;1.30;1.20;;;;;;;14.91;100.00;101617.34;1911135;73;39694;-72
2021/06/19 09:02:01;;;;;;;1.50;1.40;;;;;;;14.88;100.00;101601.16;1764055;79;85758;-73
2021/06/19 09:07:43;;;;;;;1.93;1.60;;;;;;;14.97;100.00;101616.17;1935005;72;39530;-72
2021/06/19 09:13:20;;;;;;;2.07;1.37;;;;;;;15.09;100.00;101604.00;1946910;73;39612;-71
2021/06/19 09:18:46;;;;;;;1.60;1.50;;;;;;;15.31;100.00;101606.27;1891628;75;86158;-71
2021/06/19 09:24:10;;;;;;;2.93;1.80;;;;;;;15.51;100.00;101596.80;1949253;73;39822;-72
2021/06/19 09:29:35;;;;;;;2.10;1.77;;;;;;;15.28;100.00;101595.08;1944131;73;39509;-71
2021/06/19 09:35:16;;;;;;;3.67;1.77;;;;;;;15.29;100.00;101589.76;1782158;79;85603;-72
2021/06/19 09:40:44;;;;;;;3.43;2.03;;;;;;;15.24;100.00;101579.18;1911228;72;39638;-72
2021/06/19 09:46:12;;;;;;;1.73;1.63;;;;;;;15.39;100.00;101580.41;1954292;72;39748;-72
2021/06/19 09:51:35;;;;;;;2.67;2.30;;;;;;;15.52;100.00;101581.66;1874237;75;39591;-72
2021/06/19 09:57:02;;;;;;;2.90;2.10;;;;;;;15.44;100.00;101586.78;1758816;80;86258;-72
2021/06/19 10:02:29;;;;;;;2.33;2.13;;;;;;;15.53;100.00;101572.14;1918286;73;39625;-72
2021/06/19 10:07:54;;;;;;;2.63;2.43;;;;;;;15.49;100.00;101589.48;1837152;77;85495;-72
2021/06/19 10:13:18;;;;;;;3.57;2.30;;;;;;;15.44;100.00;101578.38;1947053;73;39838;-72
2021/06/19 10:18:45;;;;;;;2.90;2.40;;;;;;;15.55;100.00;101588.05;1876707;75;86825;-71
2021/06/19 10:24:13;;;;;;;2.27;1.90;;;;;;;15.50;100.00;101590.36;1949176;73;39632;-72
2021/06/19 10:29:38;;;;;;;2.80;2.20;;;;;;;15.51;100.00;101593.99;1891135;73;39643;-72
2021/06/19 10:35:04;;;;;;;2.43;2.23;;;;;;;15.43;100.00;101596.30;1793423;79;86464;-72
2021/06/19 10:40:30;;;;;;;3.17;2.17;;;;;;;15.60;100.00;101593.03;1916431;73;39601;-72
2021/06/19 10:46:32;;;;;;;3.90;2.20;;;;;;;15.74;100.00;101584.16;1954213;72;40257;-72
2021/06/19 10:52:22;;;;;;;3.00;2.23;;;;;;;15.81;100.00;101595.81;1837387;77;86322;-72
2021/06/19 10:58:22;;;;;;;2.47;1.90;;;;;;;15.82;100.00;101594.69;1948428;73;39814;-72
2021/06/19 11:03:50;;;;;;;3.10;2.20;;;;;;;15.90;100.00;101581.39;1876709;75;86554;-72
2021/06/19 11:09:17;;;;;;;2.63;2.43;;;;;;;16.09;100.00;101573.55;1922601;73;39861;-72
2021/06/19 11:15:00;;;;;;;2.57;2.17;;;;;;;16.19;100.00;101570.00;1876669;75;86443;-72
2021/06/19 11:20:43;;;;;;;2.60;2.33;;;;;;;16.17;100.00;101566.65;1889264;75;86443;-72
2021/06/19 11:26:10;;;;;;;3.07;2.63;;;;;;;16.07;100.00;101578.61;1838177;77;86444;-71
2021/06/19 11:31:41;;;;;;;2.73;2.50;;;;;;;16.00;100.00;101569.20;1916970;73;39657;-72
2021/06/19 11:37:05;;;;;;;5.13;3.10;;;;;;;15.91;100.00;101555.05;1838010;77;86560;-72
2021/06/19 11:42:32;;;;;;;5.00;3.73;;;;;;;16.01;100.00;101552.63;1929928;73;39610;-74
2021/06/19 11:48:02;;;;;;;3.10;2.90;;;;;;;15.94;100.00;101555.83;1882390;75;86340;-73
2021/06/19 11:53:33;;;;;;;2.90;2.63;;;;;;;15.92;100.00;101549.68;1915890;73;39617;-72
2021/06/19 11:59:04;;;;;;;3.13;2.83;;;;;;;15.82;100.00;101541.45;1769102;80;86345;-72
2021/06/19 12:04:32;;;;;;;3.93;2.60;;;;;;;16.02;100.00;101536.65;1917974;72;39444;-72
2021/06/19 12:09:57;;;;;;;2.67;2.47;;;;;;;16.32;100.00;101526.33;1832474;78;86322;-72
2021/06/19 12:15:23;;;;;;;2.60;2.40;;;;;;;16.47;100.00;101523.83;1946489;73;39768;-72
2021/06/19 12:21:02;;;;;;;2.90;2.40;;;;;;;16.47;100.00;101518.22;1903264;74;85518;-71
2021/06/19 12:26:31;;;;;;;3.60;2.43;;;;;;;16.40;100.00;101498.41;1897476;73;40290;-72
2021/06/19 12:31:55;;;;;;;2.97;2.50;;;;;;;16.39;100.00;101508.52;1837244;77;86397;-71
2021/06/19 12:37:23;;;;;;;3.27;2.97;;;;;;;16.27;100.00;101510.98;1920331;73;39660;-72
2021/06/19 12:43:09;;;;;;;2.90;2.70;;;;;;;16.49;100.00;101503.30;1872501;75;86722;-72
2021/06/19 12:48:54;;;;;;;2.60;2.40;;;;;;;16.44;100.00;101490.77;1867464;76;86489;-72
2021/06/19 12:54:24;;;;;;;3.47;2.27;;;;;;;16.42;100.00;101489.70;1901664;73;39794;-72
2021/06/19 12:59:51;;;;;;;3.97;2.47;;;;;;;16.38;100.00;101488.09;1876876;75;86121;-71
2021/06/19 13:05:22;;;;;;;4.13;2.43;;;;;;;16.37;100.00;101492.03;1937835;72;40447;-72
2021/06/19 13:11:20;;;;;;;3.60;2.63;;;;;;;16.35;100.00;101490.66;1884839;73;86608;-73
2021/06/19 13:17:17;;;;;;;3.10;2.57;;;;;;;16.35;100.00;101476.63;1907264;74;86353;-73
2021/06/19 13:22:42;;;;;;;3.23;2.90;;;;;;;16.54;100.00;101464.78;1930214;72;40228;-72
2021/06/19 13:29:02;;;;;;;2.87;2.63;;;;;;;16.70;100.00;101441.48;1969231;69;86457;-72
2021/06/19 13:34:37;;;;;;;3.90;3.27;;;;;;;17.04;100.00;101419.98;1929223;73;39582;-72
2021/06/19 13:40:06;;;;;;;3.27;2.97;;;;;;;17.14;100.00;101417.80;1894533;74;86495;-72
2021/06/19 13:45:31;;;;;;;3.43;3.13;;;;;;;17.43;100.00;101408.97;1940166;72;39679;-72
2021/06/19 13:51:14;;;;;;;4.27;3.17;;;;;;;17.41;100.00;101402.85;1836863;77;85940;-73
2021/06/19 13:56:49;;;;;;;2.63;2.43;;;;;;;17.30;100.00;101400.84;1876746;75;86289;-72
2021/06/19 14:02:14;;;;;;;3.17;2.40;;;;;;;17.17;100.00;101400.31;1924325;73;39713;-72
2021/06/19 14:07:39;;;;;;;4.00;2.80;;;;;;;17.42;100.00;101382.59;1911864;73;39579;-72
2021/06/19 14:13:05;;;;;;;3.73;3.43;;;;;;;17.37;100.00;101391.16;1838061;77;85848;-72
2021/06/19 14:18:30;;;;;;;3.53;3.23;;;;;;;17.32;100.00;101394.09;1944807;73;39480;-72
2021/06/19 14:23:55;;;;;;;5.50;2.90;;;;;;;17.10;100.00;101379.44;1832186;78;85928;-72
2021/06/19 14:29:20;;;;;;;3.80;2.80;;;;;;;17.19;100.00;101381.76;1919975;73;39613;-72
2021/06/19 14:34:44;;;;;;;6.27;3.70;;;;;;;17.23;100.00;101370.15;1876709;75;86120;-72
2021/06/19 14:40:11;;;;;;;3.70;3.40;;;;;;;17.11;100.00;101365.09;1833326;78;86570;-72
2021/06/19 14:45:36;;;;;;;5.17;3.70;;;;;;;17.14;100.00;101358.84;1917000;73;39721;-72
2021/06/19 14:50:59;;;;;;;4.63;4.10;;;;;;;17.21;100.00;101334.52;1850452;76;86493;-72
2021/06/19 14:56:27;;;;;;;3.97;3.67;;;;;;;17.28;100.00;101327.91;1921917;72;48046;-72
2021/06/19 15:01:51;;;;;;;7.00;4.50;;;;;;;17.23;100.00;101334.48;1836725;77;86742;-72
2021/06/19 15:10:02;;;;;;;6.30;3.97;;;;;;;17.08;100.00;101334.00;2010824;69;39653;-72
2021/06/19 15:12:32;;;;;;;5.00;4.00;;;;;;;17.02;100.00;101336.13;1882606;73;933642;-72
2021/06/19 15:15:02;;;;;;;4.03;3.73;;;;;;;17.07;100.00;101340.78;1862347;76;936555;-72
2021/06/19 15:17:32;;;;;;;5.20;4.12;;;;;;;17.24;100.00;101337.52;1882901;74;936659;-72
2021/06/19 15:20:02;;;;;;;3.97;3.67;;;;;;;17.37;100.00;101340.62;1884567;75;936532;-72
2021/06/19 15:22:32;;;;;;;4.42;4.05;;;;;;;17.46;100.00;101342.31;1847090;76;936571;-72
2021/06/19 15:25:03;;;;;;;5.30;4.60;;;;;;;17.47;100.00;101337.53;1842344;76;935325;-72
2021/06/19 15:27:33;;;;;;;4.33;3.97;;;;;;;17.29;100.00;101337.97;1817448;75;936758;-72
2021/06/19 15:30:04;;;;;;;4.73;4.33;;;;;;;17.23;100.00;101335.05;1849033;76;933665;-72
2021/06/19 15:32:34;;;;;;;5.17;4.70;;;;;;;17.19;100.00;101338.24;1831939;76;936542;-72
2021/06/19 15:35:05;;;;;;;5.03;4.63;;;;;;;17.16;100.00;101327.05;1829651;77;934881;-71
2021/06/19 15:37:35;;;;;;;6.72;5.30;;;;;;;17.11;100.00;101330.01;1813453;75;936564;-72
2021/06/19 15:43:04;;;;;;;6.60;6.00;;;;;;;17.14;100.00;101321.52;1943272;70;86268;-72
2021/06/19 15:48:29;;;;;;;6.77;6.17;;;;;;;17.06;100.00;101313.28;1945127;73;39537;-72
2021/06/19 15:53:53;;;;;;;6.43;5.93;;;;;;;17.20;100.00;101314.04;1820934;76;87180;-72
2021/06/19 15:59:18;;;;;;;7.67;6.97;;;;;;;17.03;100.00;101301.87;1947387;73;39466;-72
2021/06/19 16:04:43;;;;;;;7.50;6.80;;;;;;;17.18;100.00;101306.53;1904240;75;86550;-72
2021/06/19 16:10:10;;;;;;;7.63;6.77;;;;;;;17.09;100.00;101304.22;1782101;78;86132;-72
2021/06/19 16:15:34;;;;;;;7.00;6.40;;;;;;;17.04;100.00;101269.82;1915162;73;39619;-72
2021/06/19 16:23:46;;;;;;;8.13;7.47;;;;;;;17.29;100.00;101262.16;1904503;74;85901;-72
2021/06/19 16:26:16;;;;;;;8.87;8.17;;;;;;;17.20;100.00;101265.52;1773144;78;933039;-72
2021/06/19 16:28:47;;;;;;;8.37;7.70;;;;;;;17.16;100.00;101252.66;1757023;79;936694;-72
2021/06/19 16:34:06;;;;;;;9.90;9.07;;;;;;;17.10;100.00;101255.36;1804641;79;86934;-72
2021/06/19 16:39:30;;;;;;;8.30;7.70;;;;;;;17.03;100.00;101294.85;1914644;73;39604;-72
2021/06/19 16:44:57;;;;;;;7.60;6.70;;;;;;;16.96;100.00;101271.98;1837073;77;86759;-72
2021/06/19 16:50:20;;;;;;;7.70;6.70;;;;;;;16.96;100.00;101261.59;1924894;72;39646;-72
2021/06/19 16:55:45;;;;;;;7.13;6.53;;;;;;;17.00;100.00;101256.17;1876674;75;86201;-74
2021/06/19 17:01:11;;;;;;;8.83;8.10;;;;;;;17.00;100.00;101275.25;1939434;72;39622;-74
2021/06/19 17:06:36;;;;;;;7.67;6.97;;;;;;;16.92;100.00;101292.84;1913268;73;39594;-80
2021/06/19 17:12:01;;;;;;;7.90;7.40;;;;;;;16.74;100.00;101270.81;1947585;71;86579;-83
2021/06/19 17:17:26;;;;;;;7.87;7.17;;;;;;;16.86;100.00;101249.81;1917053;73;39655;-80
2021/06/19 17:22:54;;;;;;;8.40;6.83;;;;;;;16.83;100.00;101259.67;1903543;74;86354;-75
2021/06/19 17:28:18;;;;;;;7.87;7.17;;;;;;;16.75;100.00;101258.45;1926788;72;39724;-75
2021/06/19 17:33:48;;;;;;;7.20;6.60;;;;;;;16.71;100.00;101250.98;1892327;75;86527;-83
2021/06/19 17:39:13;;;;;;;7.67;6.97;;;;;;;16.70;100.00;101237.53;1939252;72;39403;-81
2021/06/19 17:44:37;;;;;;;7.87;7.07;;;;;;;16.73;100.00;101223.43;1943734;73;39460;-75
2021/06/19 17:50:01;;;;;;;8.37;6.87;;;;;;;16.71;100.00;101203.30;1763866;79;86207;-81
2021/06/19 17:55:26;;;;;;;9.00;7.67;;;;;;;16.65;100.00;101180.14;1895557;74;40092;-80
2021/06/19 18:00:50;;;;;;;8.77;7.87;;;;;;;16.56;100.00;101158.78;1876960;75;86549;-83
2021/06/19 18:06:15;;;;;;;8.17;7.37;;;;;;;16.67;100.00;101148.98;1948801;73;39604;-83
2021/06/19 18:11:40;;;;;;;8.40;7.70;;;;;;;16.71;100.00;101117.74;1925060;72;39514;-79
2021/06/19 18:17:05;;;;;;;9.23;7.80;;;;;;;16.70;100.00;101109.06;1837977;77;86193;-81
2021/06/19 18:22:30;;;;;;;9.27;8.00;;;;;;;16.65;100.00;101097.41;1945102;73;39705;-80
2021/06/19 18:27:55;;;;;;;9.13;8.23;;;;;;;16.57;100.00;101097.31;1832192;78;86340;-80
2021/06/19 18:33:23;;;;;;;11.70;9.13;;;;;;;16.62;100.00;101135.91;1901730;73;39572;-80
2021/06/19 18:38:47;;;;;;;10.13;8.63;;;;;;;16.53;100.00;101139.19;1881821;75;86540;-80
2021/06/19 18:44:12;;;;;;;10.07;9.00;;;;;;;16.53;100.00;101150.41;1906685;73;39609;-82
2021/06/19 18:49:55;;;;;;;12.67;9.67;;;;;;;16.45;100.00;101137.16;1873019;74;86564;-83
2021/06/19 18:55:20;;;;;;;10.10;8.70;;;;;;;16.41;100.00;101126.31;1925282;73;39844;-83
2021/06/19 19:00:46;;;;;;;11.10;8.90;;;;;;;16.30;100.00;101124.31;1891841;74;86371;-80
2021/06/19 19:06:11;;;;;;;9.00;8.10;;;;;;;16.32;100.00;101101.02;1925837;73;39615;-83
2021/06/19 19:11:35;;;;;;;10.47;9.23;;;;;;;16.39;100.00;101083.73;1944164;73;39510;-84
2021/06/19 19:17:02;;;;;;;12.20;10.37;;;;;;;16.42;100.00;101073.87;1861872;76;86568;-80
2021/06/19 19:22:27;;;;;;;13.57;9.73;;;;;;;16.33;100.00;101090.63;1945582;73;39551;-83
2021/06/19 19:27:51;;;;;;;10.90;9.80;;;;;;;16.32;100.00;101082.80;1836712;77;85765;-80
2021/06/19 19:33:17;;;;;;;10.87;9.77;;;;;;;16.32;100.00;101074.38;1948092;73;39417;-83
2021/06/19 19:38:48;;;;;;;9.67;8.43;;;;;;;16.30;100.00;101084.27;1876856;75;86731;-80
2021/06/19 19:44:14;;;;;;;10.57;8.73;;;;;;;16.22;100.00;101079.39;1948836;73;39802;-80
2021/06/19 19:49:39;;;;;;;8.87;7.30;;;;;;;16.13;100.00;101073.72;1943425;73;39552;-75
2021/06/19 19:55:09;;;;;;;8.77;7.00;;;;;;;16.16;100.00;101068.90;1784987;79;86616;-81
2021/06/19 20:00:34;;;;;;;8.47;7.33;;;;;;;16.16;100.00;101078.71;1913838;73;40261;-75
2021/06/19 20:05:58;;;;;;;8.20;7.37;;;;;;;16.14;100.00;101090.80;1837787;77;85671;-81
2021/06/19 20:11:42;;;;;;;7.57;6.77;;;;;;;16.03;100.00;101092.19;1988747;71;40748;-82
2021/06/19 20:17:07;;;;;;;7.50;5.90;;;;;;;16.08;100.00;101061.25;1777041;79;86177;-80
2021/06/19 20:22:31;;;;;;;8.23;6.27;;;;;;;16.09;100.00;101070.49;1944867;73;39466;-75
2021/06/19 20:27:56;;;;;;;7.30;6.63;;;;;;;16.04;100.00;101076.21;1869184;76;86619;-80
2021/06/19 20:33:21;;;;;;;7.27;6.57;;;;;;;16.09;100.00;101084.50;1946613;72;39723;-80
2021/06/19 20:38:48;;;;;;;7.80;7.00;;;;;;;16.03;100.00;101075.38;1877126;75;86564;-76
2021/06/19 20:44:12;;;;;;;8.77;6.00;;;;;;;16.02;100.00;101084.09;1939209;72;39750;-75
2021/06/19 20:49:38;;;;;;;6.57;6.00;;;;;;;15.94;100.00;101071.10;1910439;73;39531;-80
2021/06/19 20:55:05;;;;;;;8.60;6.37;;;;;;;16.03;100.00;101080.16;1880245;76;86390;-82
2021/06/19 21:00:32;;;;;;;8.50;7.30;;;;;;;16.03;100.00;101090.80;1930334;73;39437;-80
2021/06/19 21:05:57;;;;;;;10.73;8.27;;;;;;;16.02;100.00;101089.12;1837294;77;86078;-80
2021/06/19 21:11:22;;;;;;;12.23;8.40;;;;;;;16.04;100.00;101084.62;1919705;73;39803;-76
2021/06/19 21:16:47;;;;;;;9.30;8.07;;;;;;;15.97;100.00;101080.83;1876865;75;86434;-75
2021/06/19 21:22:13;;;;;;;10.70;8.20;;;;;;;16.04;100.00;101063.03;1939343;73;39719;-74
2021/06/19 21:27:38;;;;;;;11.50;9.03;;;;;;;15.89;100.00;101064.21;1943830;73;39401;-73
2021/06/19 21:33:06;;;;;;;10.23;9.17;;;;;;;15.86;100.00;101066.25;1829078;78;86308;-80
2021/06/19 21:38:32;;;;;;;14.20;9.33;;;;;;;15.80;100.00;101064.70;1913744;73;39602;-83
2021/06/19 21:43:59;;;;;;;11.80;9.63;;;;;;;15.77;100.00;101066.73;1873769;74;86453;-79
2021/06/19 21:49:23;;;;;;;11.90;8.70;;;;;;;15.60;100.00;101063.77;1946071;73;39457;-80
2021/06/19 21:54:49;;;;;;;11.73;9.10;;;;;;;15.72;100.00;101064.05;1882332;75;86165;-75
2021/06/19 22:00:36;;;;;;;11.47;9.03;;;;;;;15.70;100.00;101066.91;1948490;73;39497;-80
2021/06/19 22:06:05;;;;;;;12.30;8.87;;;;;;;15.72;100.00;101069.64;1883883;75;86481;-81
2021/06/19 22:11:29;;;;;;;14.80;9.80;;;;;;;15.76;100.00;101067.04;1945299;73;39714;-82
2021/06/19 22:16:54;;;;;;;11.77;9.37;;;;;;;15.64;100.00;101068.99;1814816;78;86439;-75
2021/06/19 22:22:18;;;;;;;13.00;10.07;;;;;;;15.70;100.00;101064.92;1947312;73;39465;-80
2021/06/19 22:27:44;;;;;;;10.77;9.20;;;;;;;15.70;100.00;101055.71;1876756;75;86557;-80
2021/06/19 22:33:11;;;;;;;12.47;9.33;;;;;;;15.67;100.00;101052.12;1925988;73;39548;-75
2021/06/19 22:38:36;;;;;;;12.83;9.80;;;;;;;15.67;100.00;101031.95;1943917;73;39662;-84
2021/06/19 22:44:00;;;;;;;11.17;9.13;;;;;;;15.61;100.00;101030.99;1784826;79;86606;-81
2021/06/19 22:49:25;;;;;;;14.20;8.90;;;;;;;15.67;100.00;101035.31;1933365;72;39544;-75
2021/06/19 22:54:52;;;;;;;14.37;8.57;;;;;;;15.54;100.00;101023.57;1902818;75;85760;-81
2021/06/19 23:00:18;;;;;;;12.20;9.80;;;;;;;15.52;100.00;101008.51;1923454;73;39469;-80
2021/06/19 23:05:44;;;;;;;17.37;9.53;;;;;;;15.47;100.00;101006.62;1876700;75;86445;-80
2021/06/19 23:11:08;;;;;;;16.57;9.30;;;;;;;15.47;100.00;101011.38;1881132;75;86454;-80
2021/06/19 23:16:34;;;;;;;15.03;10.60;;;;;;;15.44;100.00;101014.81;1928746;72;39429;-81
2021/06/19 23:21:59;;;;;;;16.30;9.63;;;;;;;15.39;100.00;100999.53;1868502;76;86225;-81
2021/06/19 23:27:29;;;;;;;12.50;8.67;;;;;;;15.38;100.00;101009.89;1930733;72;39605;-75
2021/06/19 23:32:55;;;;;;;13.90;9.20;;;;;;;15.36;100.00;101016.96;1869175;77;86817;-81
2021/06/19 23:38:41;;;;;;;14.33;9.33;;;;;;;15.34;100.00;101005.23;1978423;71;39538;-81
2021/06/19 23:44:25;;;;;;;13.80;9.10;;;;;;;15.35;100.00;100983.94;1841342;76;86481;-74
2021/06/19 23:49:48;;;;;;;15.60;8.93;;;;;;;15.27;100.00;100976.86;1876804;75;85645;-80
2021/06/19 23:55:14;;;;;;;14.77;9.13;;;;;;;15.28;100.00;100972.33;1906582;73;39647;-79
